sensor_id;sensor_type;location;lat;lon;timestamp;P1;durP1;ratioP1;P2;durP2;ratioP2
4508;SDS011;2267;48.816;9.230;2024-01-30T00:00:21;19.70;;;17.47;;
4508;SDS011;2267;48.816;9.230;2024-01-30T00:02:48;17.77;;;16.10;;
4508;SDS011;2267;48.816;9.230;2024-01-30T00:05:15;18.73;;;16.70;;
4508;SDS011;2267;48.816;9.230;2024-01-30T00:07:42;18.60;;;16.90;;
4508;SDS011;2267;48.816;9.230;2024-01-30T00:10:09;18.50;;;16.53;;
4508;SDS011;2267;48.816;9.230;2024-01-30T00:12:36;18.90;;;17.00;;
4508;SDS011;2267;48.816;9.230;2024-01-30T00:15:03;17.53;;;15.83;;
4508;SDS011;2267;48.816;9.230;2024-01-30T00:17:31;17.80;;;16.20;;
4508;SDS011;2267;48.816;9.230;2024-01-30T00:19:58;15.93;;;14.53;;
4508;SDS011;2267;48.816;9.230;2024-01-30T00:22:25;15.70;;;14.40;;
4508;SDS011;2267;48.816;9.230;2024-01-30T00:24:52;16.13;;;14.63;;
4508;SDS011;2267;48.816;9.230;2024-01-30T00:27:18;16.77;;;15.07;;
4508;SDS011;2267;48.816;9.230;2024-01-30T00:29:45;15.70;;;14.20;;
4508;SDS011;2267;48.816;9.230;2024-01-30T00:32:12;16.10;;;14.40;;
4508;SDS011;2267;48.816;9.230;2024-01-30T00:34:39;18.43;;;16.70;;
4508;SDS011;2267;48.816;9.230;2024-01-30T00:37:06;16.63;;;15.20;;
4508;SDS011;2267;48.816;9.230;2024-01-30T00:39:33;15.23;;;14.03;;
4508;SDS011;2267;48.816;9.230;2024-01-30T00:42:00;15.87;;;14.37;;
4508;SDS011;2267;48.816;9.230;2024-01-30T00:44:27;14.40;;;13.10;;
4508;SDS011;2267;48.816;9.230;2024-01-30T00:46:54;15.67;;;14.23;;
4508;SDS011;2267;48.816;9.230;2024-01-30T00:49:20;14.97;;;13.50;;
4508;SDS011;2267;48.816;9.230;2024-01-30T00:51:47;15.80;;;14.37;;
4508;SDS011;2267;48.816;9.230;2024-01-30T00:54:14;16.00;;;14.50;;
4508;SDS011;2267;48.816;9.230;2024-01-30T00:56:41;16.50;;;14.50;;
4508;SDS011;2267;48.816;9.230;2024-01-30T00:59:08;15.13;;;13.73;;
4508;SDS011;2267;48.816;9.230;2024-01-30T01:01:35;16.07;;;14.67;;
4508;SDS011;2267;48.816;9.230;2024-01-30T01:04:02;17.20;;;15.57;;
4508;SDS011;2267;48.816;9.230;2024-01-30T01:06:29;17.10;;;15.50;;
4508;SDS011;2267;48.816;9.230;2024-01-30T01:08:56;17.57;;;15.97;;
4508;SDS011;2267;48.816;9.230;2024-01-30T01:11:23;16.13;;;14.63;;
4508;SDS011;2267;48.816;9.230;2024-01-30T01:13:50;17.93;;;16.27;;
4508;SDS011;2267;48.816;9.230;2024-01-30T01:16:16;17.50;;;16.00;;
4508;SDS011;2267;48.816;9.230;2024-01-30T01:18:43;17.83;;;16.17;;
4508;SDS011;2267;48.816;9.230;2024-01-30T01:21:10;17.43;;;16.03;;
4508;SDS011;2267;48.816;9.230;2024-01-30T01:23:37;18.67;;;16.87;;
4508;SDS011;2267;48.816;9.230;2024-01-30T01:26:04;18.87;;;16.97;;
4508;SDS011;2267;48.816;9.230;2024-01-30T01:28:31;18.80;;;16.80;;
4508;SDS011;2267;48.816;9.230;2024-01-30T01:30:58;18.00;;;16.33;;
4508;SDS011;2267;48.816;9.230;2024-01-30T01:33:31;16.93;;;15.53;;
4508;SDS011;2267;48.816;9.230;2024-01-30T01:35:59;19.40;;;17.50;;
4508;SDS011;2267;48.816;9.230;2024-01-30T01:38:29;18.60;;;16.70;;
4508;SDS011;2267;48.816;9.230;2024-01-30T01:40:55;19.30;;;17.57;;
4508;SDS011;2267;48.816;9.230;2024-01-30T01:43:22;17.47;;;16.00;;
4508;SDS011;2267;48.816;9.230;2024-01-30T01:45:49;20.13;;;18.03;;
4508;SDS011;2267;48.816;9.230;2024-01-30T01:48:16;18.00;;;16.20;;
4508;SDS011;2267;48.816;9.230;2024-01-30T01:50:43;17.77;;;16.17;;
4508;SDS011;2267;48.816;9.230;2024-01-30T01:53:10;17.90;;;16.20;;
4508;SDS011;2267;48.816;9.230;2024-01-30T01:55:39;19.07;;;17.20;;
4508;SDS011;2267;48.816;9.230;2024-01-30T01:58:06;18.27;;;16.47;;
4508;SDS011;2267;48.816;9.230;2024-01-30T02:00:35;19.47;;;17.67;;
4508;SDS011;2267;48.816;9.230;2024-01-30T02:03:06;20.27;;;18.27;;
4508;SDS011;2267;48.816;9.230;2024-01-30T02:05:36;19.97;;;18.07;;
4508;SDS011;2267;48.816;9.230;2024-01-30T02:08:04;18.53;;;16.83;;
4508;SDS011;2267;48.816;9.230;2024-01-30T02:10:31;17.63;;;16.10;;
4508;SDS011;2267;48.816;9.230;2024-01-30T02:12:58;18.90;;;17.00;;
4508;SDS011;2267;48.816;9.230;2024-01-30T02:15:25;19.97;;;18.23;;
4508;SDS011;2267;48.816;9.230;2024-01-30T02:17:52;18.97;;;17.17;;
4508;SDS011;2267;48.816;9.230;2024-01-30T02:20:19;18.10;;;16.37;;
4508;SDS011;2267;48.816;9.230;2024-01-30T02:22:46;20.20;;;18.40;;
4508;SDS011;2267;48.816;9.230;2024-01-30T02:25:14;17.97;;;16.23;;
4508;SDS011;2267;48.816;9.230;2024-01-30T02:27:41;17.57;;;15.83;;
4508;SDS011;2267;48.816;9.230;2024-01-30T02:30:08;18.33;;;16.83;;
4508;SDS011;2267;48.816;9.230;2024-01-30T02:32:36;17.60;;;16.07;;
4508;SDS011;2267;48.816;9.230;2024-01-30T02:35:03;18.57;;;16.67;;
4508;SDS011;2267;48.816;9.230;2024-01-30T02:37:30;17.13;;;15.73;;
4508;SDS011;2267;48.816;9.230;2024-01-30T02:39:56;16.70;;;15.23;;
4508;SDS011;2267;48.816;9.230;2024-01-30T02:42:23;15.90;;;14.57;;
4508;SDS011;2267;48.816;9.230;2024-01-30T02:44:50;16.90;;;15.20;;
4508;SDS011;2267;48.816;9.230;2024-01-30T02:47:17;16.20;;;14.70;;
4508;SDS011;2267;48.816;9.230;2024-01-30T02:49:44;16.47;;;14.97;;
4508;SDS011;2267;48.816;9.230;2024-01-30T02:52:11;17.37;;;15.67;;
4508;SDS011;2267;48.816;9.230;2024-01-30T02:54:38;15.20;;;13.93;;
4508;SDS011;2267;48.816;9.230;2024-01-30T02:57:04;17.10;;;15.50;;
4508;SDS011;2267;48.816;9.230;2024-01-30T02:59:31;16.33;;;14.70;;
4508;SDS011;2267;48.816;9.230;2024-01-30T03:01:59;16.17;;;14.80;;
4508;SDS011;2267;48.816;9.230;2024-01-30T03:04:26;16.40;;;15.10;;
4508;SDS011;2267;48.816;9.230;2024-01-30T03:06:53;16.67;;;15.07;;
4508;SDS011;2267;48.816;9.230;2024-01-30T03:09:20;17.00;;;15.43;;
4508;SDS011;2267;48.816;9.230;2024-01-30T03:11:47;17.10;;;15.60;;
4508;SDS011;2267;48.816;9.230;2024-01-30T03:14:14;15.20;;;13.87;;
4508;SDS011;2267;48.816;9.230;2024-01-30T03:16:41;17.33;;;15.40;;
4508;SDS011;2267;48.816;9.230;2024-01-30T03:19:09;18.07;;;16.37;;
4508;SDS011;2267;48.816;9.230;2024-01-30T03:21:36;17.07;;;15.33;;
4508;SDS011;2267;48.816;9.230;2024-01-30T03:24:03;17.50;;;15.50;;
4508;SDS011;2267;48.816;9.230;2024-01-30T03:26:30;17.13;;;15.73;;
4508;SDS011;2267;48.816;9.230;2024-01-30T03:28:57;17.47;;;15.97;;
4508;SDS011;2267;48.816;9.230;2024-01-30T03:31:24;17.73;;;16.13;;
4508;SDS011;2267;48.816;9.230;2024-01-30T03:33:51;17.53;;;15.63;;
4508;SDS011;2267;48.816;9.230;2024-01-30T03:36:18;16.60;;;15.10;;
4508;SDS011;2267;48.816;9.230;2024-01-30T03:38:45;17.27;;;15.77;;
4508;SDS011;2267;48.816;9.230;2024-01-30T03:41:11;17.07;;;15.47;;
4508;SDS011;2267;48.816;9.230;2024-01-30T03:43:38;16.50;;;15.10;;
4508;SDS011;2267;48.816;9.230;2024-01-30T03:46:05;17.80;;;16.17;;
4508;SDS011;2267;48.816;9.230;2024-01-30T03:48:32;16.70;;;15.30;;
4508;SDS011;2267;48.816;9.230;2024-01-30T03:50:59;16.17;;;14.70;;
4508;SDS011;2267;48.816;9.230;2024-01-30T03:53:25;16.00;;;14.63;;
4508;SDS011;2267;48.816;9.230;2024-01-30T03:55:52;16.63;;;15.13;;
4508;SDS011;2267;48.816;9.230;2024-01-30T03:58:19;16.67;;;15.20;;
4508;SDS011;2267;48.816;9.230;2024-01-30T04:00:46;17.30;;;15.60;;
4508;SDS011;2267;48.816;9.230;2024-01-30T04:03:16;14.90;;;13.70;;
4508;SDS011;2267;48.816;9.230;2024-01-30T04:05:43;15.57;;;13.97;;
4508;SDS011;2267;48.816;9.230;2024-01-30T04:08:10;14.97;;;13.67;;
4508;SDS011;2267;48.816;9.230;2024-01-30T04:10:37;15.20;;;13.50;;
4508;SDS011;2267;48.816;9.230;2024-01-30T04:13:03;14.63;;;13.30;;
4508;SDS011;2267;48.816;9.230;2024-01-30T04:15:32;15.40;;;14.20;;
4508;SDS011;2267;48.816;9.230;2024-01-30T04:17:59;17.37;;;15.73;;
4508;SDS011;2267;48.816;9.230;2024-01-30T04:20:26;15.80;;;14.47;;
4508;SDS011;2267;48.816;9.230;2024-01-30T04:22:53;15.07;;;13.67;;
4508;SDS011;2267;48.816;9.230;2024-01-30T04:25:20;16.67;;;15.10;;
4508;SDS011;2267;48.816;9.230;2024-01-30T04:27:47;16.50;;;14.83;;
4508;SDS011;2267;48.816;9.230;2024-01-30T04:30:14;16.73;;;15.03;;
4508;SDS011;2267;48.816;9.230;2024-01-30T04:32:41;15.13;;;13.77;;
4508;SDS011;2267;48.816;9.230;2024-01-30T04:35:08;16.17;;;14.57;;
4508;SDS011;2267;48.816;9.230;2024-01-30T04:37:37;16.73;;;15.03;;
4508;SDS011;2267;48.816;9.230;2024-01-30T04:40:05;15.47;;;14.07;;
4508;SDS011;2267;48.816;9.230;2024-01-30T04:42:32;16.47;;;14.97;;
4508;SDS011;2267;48.816;9.230;2024-01-30T04:44:59;15.03;;;13.80;;
4508;SDS011;2267;48.816;9.230;2024-01-30T04:47:26;17.87;;;16.30;;
4508;SDS011;2267;48.816;9.230;2024-01-30T04:49:53;17.10;;;15.60;;
4508;SDS011;2267;48.816;9.230;2024-01-30T04:52:20;18.13;;;16.23;;
4508;SDS011;2267;48.816;9.230;2024-01-30T04:54:47;15.70;;;14.30;;
4508;SDS011;2267;48.816;9.230;2024-01-30T04:57:14;17.30;;;14.37;;
4508;SDS011;2267;48.816;9.230;2024-01-30T04:59:41;15.90;;;14.30;;
4508;SDS011;2267;48.816;9.230;2024-01-30T05:02:08;16.10;;;14.80;;
4508;SDS011;2267;48.816;9.230;2024-01-30T05:04:35;15.37;;;14.07;;
4508;SDS011;2267;48.816;9.230;2024-01-30T05:07:02;14.07;;;12.90;;
4508;SDS011;2267;48.816;9.230;2024-01-30T05:09:29;15.03;;;13.67;;
4508;SDS011;2267;48.816;9.230;2024-01-30T05:11:56;15.90;;;14.40;;
4508;SDS011;2267;48.816;9.230;2024-01-30T05:14:23;15.53;;;14.20;;
4508;SDS011;2267;48.816;9.230;2024-01-30T05:16:50;16.07;;;14.40;;
4508;SDS011;2267;48.816;9.230;2024-01-30T05:19:16;16.73;;;15.10;;
4508;SDS011;2267;48.816;9.230;2024-01-30T05:21:44;15.60;;;14.40;;
4508;SDS011;2267;48.816;9.230;2024-01-30T05:24:11;14.70;;;13.33;;
4508;SDS011;2267;48.816;9.230;2024-01-30T05:26:38;14.60;;;13.30;;
4508;SDS011;2267;48.816;9.230;2024-01-30T05:29:05;14.83;;;13.50;;
4508;SDS011;2267;48.816;9.230;2024-01-30T05:31:32;15.30;;;13.80;;
4508;SDS011;2267;48.816;9.230;2024-01-30T05:34:00;14.67;;;13.47;;
4508;SDS011;2267;48.816;9.230;2024-01-30T05:36:28;14.20;;;12.90;;
4508;SDS011;2267;48.816;9.230;2024-01-30T05:38:55;15.07;;;13.70;;
4508;SDS011;2267;48.816;9.230;2024-01-30T05:41:22;15.20;;;13.90;;
4508;SDS011;2267;48.816;9.230;2024-01-30T05:43:49;14.10;;;12.90;;
4508;SDS011;2267;48.816;9.230;2024-01-30T05:46:16;15.13;;;13.67;;
4508;SDS011;2267;48.816;9.230;2024-01-30T05:48:44;15.80;;;14.50;;
4508;SDS011;2267;48.816;9.230;2024-01-30T05:51:11;14.80;;;13.40;;
4508;SDS011;2267;48.816;9.230;2024-01-30T05:53:38;15.90;;;14.50;;
4508;SDS011;2267;48.816;9.230;2024-01-30T05:56:05;15.50;;;14.20;;
4508;SDS011;2267;48.816;9.230;2024-01-30T05:58:32;15.47;;;14.00;;
4508;SDS011;2267;48.816;9.230;2024-01-30T06:00:59;16.10;;;14.50;;
4508;SDS011;2267;48.816;9.230;2024-01-30T06:03:26;15.97;;;14.37;;
4508;SDS011;2267;48.816;9.230;2024-01-30T06:05:53;14.47;;;13.30;;
4508;SDS011;2267;48.816;9.230;2024-01-30T06:08:19;15.20;;;13.80;;
4508;SDS011;2267;48.816;9.230;2024-01-30T06:10:46;17.60;;;15.40;;
4508;SDS011;2267;48.816;9.230;2024-01-30T06:13:14;15.27;;;13.97;;
4508;SDS011;2267;48.816;9.230;2024-01-30T06:15:41;16.43;;;14.83;;
4508;SDS011;2267;48.816;9.230;2024-01-30T06:18:08;14.60;;;13.30;;
4508;SDS011;2267;48.816;9.230;2024-01-30T06:20:35;15.73;;;14.27;;
4508;SDS011;2267;48.816;9.230;2024-01-30T06:23:02;16.60;;;15.20;;
4508;SDS011;2267;48.816;9.230;2024-01-30T06:25:29;16.63;;;14.87;;
4508;SDS011;2267;48.816;9.230;2024-01-30T06:27:55;15.77;;;14.43;;
4508;SDS011;2267;48.816;9.230;2024-01-30T06:30:22;16.00;;;14.53;;
4508;SDS011;2267;48.816;9.230;2024-01-30T06:32:49;15.43;;;13.97;;
4508;SDS011;2267;48.816;9.230;2024-01-30T06:35:16;16.87;;;15.27;;
4508;SDS011;2267;48.816;9.230;2024-01-30T06:37:44;17.37;;;15.63;;
4508;SDS011;2267;48.816;9.230;2024-01-30T06:40:10;15.73;;;14.50;;
4508;SDS011;2267;48.816;9.230;2024-01-30T06:42:38;14.57;;;13.27;;
4508;SDS011;2267;48.816;9.230;2024-01-30T06:45:05;13.50;;;12.30;;
4508;SDS011;2267;48.816;9.230;2024-01-30T06:47:32;15.43;;;13.93;;
4508;SDS011;2267;48.816;9.230;2024-01-30T06:49:59;14.20;;;12.90;;
4508;SDS011;2267;48.816;9.230;2024-01-30T06:52:26;15.07;;;13.77;;
4508;SDS011;2267;48.816;9.230;2024-01-30T06:54:53;15.80;;;14.30;;
4508;SDS011;2267;48.816;9.230;2024-01-30T06:57:20;15.33;;;14.00;;
4508;SDS011;2267;48.816;9.230;2024-01-30T06:59:47;16.97;;;15.30;;
4508;SDS011;2267;48.816;9.230;2024-01-30T07:02:14;19.63;;;15.50;;
4508;SDS011;2267;48.816;9.230;2024-01-30T07:04:41;16.50;;;14.83;;
4508;SDS011;2267;48.816;9.230;2024-01-30T07:07:12;18.90;;;16.90;;
4508;SDS011;2267;48.816;9.230;2024-01-30T07:09:42;18.13;;;16.43;;
4508;SDS011;2267;48.816;9.230;2024-01-30T07:12:08;16.83;;;15.40;;
4508;SDS011;2267;48.816;9.230;2024-01-30T07:14:35;16.33;;;14.60;;
4508;SDS011;2267;48.816;9.230;2024-01-30T07:17:02;18.47;;;16.83;;
4508;SDS011;2267;48.816;9.230;2024-01-30T07:19:29;18.40;;;16.80;;
4508;SDS011;2267;48.816;9.230;2024-01-30T07:21:56;17.93;;;16.17;;
4508;SDS011;2267;48.816;9.230;2024-01-30T07:24:23;17.87;;;16.20;;
4508;SDS011;2267;48.816;9.230;2024-01-30T07:26:50;18.30;;;16.60;;
4508;SDS011;2267;48.816;9.230;2024-01-30T07:29:17;17.30;;;15.70;;
4508;SDS011;2267;48.816;9.230;2024-01-30T07:31:44;18.80;;;16.90;;
4508;SDS011;2267;48.816;9.230;2024-01-30T07:34:11;17.67;;;16.07;;
4508;SDS011;2267;48.816;9.230;2024-01-30T07:36:38;18.93;;;17.13;;
4508;SDS011;2267;48.816;9.230;2024-01-30T07:39:05;17.43;;;15.73;;
4508;SDS011;2267;48.816;9.230;2024-01-30T07:41:32;17.67;;;16.10;;
4508;SDS011;2267;48.816;9.230;2024-01-30T07:43:59;19.00;;;16.10;;
4508;SDS011;2267;48.816;9.230;2024-01-30T07:46:26;17.80;;;16.00;;
4508;SDS011;2267;48.816;9.230;2024-01-30T07:48:53;17.17;;;15.47;;
4508;SDS011;2267;48.816;9.230;2024-01-30T07:51:22;17.93;;;16.23;;
4508;SDS011;2267;48.816;9.230;2024-01-30T07:53:49;18.53;;;16.97;;
4508;SDS011;2267;48.816;9.230;2024-01-30T07:56:16;16.13;;;14.63;;
4508;SDS011;2267;48.816;9.230;2024-01-30T07:58:43;17.93;;;15.90;;
4508;SDS011;2267;48.816;9.230;2024-01-30T08:01:10;16.27;;;14.57;;
4508;SDS011;2267;48.816;9.230;2024-01-30T08:03:37;16.60;;;15.20;;
4508;SDS011;2267;48.816;9.230;2024-01-30T08:06:07;16.70;;;15.20;;
4508;SDS011;2267;48.816;9.230;2024-01-30T08:08:34;16.70;;;15.13;;
4508;SDS011;2267;48.816;9.230;2024-01-30T08:11:01;16.90;;;15.30;;
4508;SDS011;2267;48.816;9.230;2024-01-30T08:13:27;15.50;;;14.20;;
4508;SDS011;2267;48.816;9.230;2024-01-30T08:15:54;16.00;;;14.40;;
4508;SDS011;2267;48.816;9.230;2024-01-30T08:18:21;17.17;;;15.50;;
4508;SDS011;2267;48.816;9.230;2024-01-30T08:20:48;16.47;;;14.80;;
4508;SDS011;2267;48.816;9.230;2024-01-30T08:23:15;14.83;;;13.20;;
4508;SDS011;2267;48.816;9.230;2024-01-30T08:25:42;15.47;;;14.13;;
4508;SDS011;2267;48.816;9.230;2024-01-30T08:28:09;15.90;;;14.30;;
4508;SDS011;2267;48.816;9.230;2024-01-30T08:30:36;15.43;;;13.93;;
4508;SDS011;2267;48.816;9.230;2024-01-30T08:33:05;14.13;;;12.93;;
4508;SDS011;2267;48.816;9.230;2024-01-30T08:35:32;15.73;;;14.33;;
4508;SDS011;2267;48.816;9.230;2024-01-30T08:38:00;15.60;;;14.30;;
4508;SDS011;2267;48.816;9.230;2024-01-30T08:40:27;15.07;;;13.57;;
4508;SDS011;2267;48.816;9.230;2024-01-30T08:42:55;15.03;;;13.30;;
4508;SDS011;2267;48.816;9.230;2024-01-30T08:45:22;14.83;;;13.57;;
4508;SDS011;2267;48.816;9.230;2024-01-30T08:47:49;14.73;;;13.47;;
4508;SDS011;2267;48.816;9.230;2024-01-30T08:50:16;15.77;;;14.30;;
4508;SDS011;2267;48.816;9.230;2024-01-30T08:52:43;15.87;;;14.47;;
4508;SDS011;2267;48.816;9.230;2024-01-30T08:55:12;15.37;;;14.07;;
4508;SDS011;2267;48.816;9.230;2024-01-30T08:57:39;15.80;;;14.40;;
4508;SDS011;2267;48.816;9.230;2024-01-30T09:00:06;16.53;;;14.97;;
4508;SDS011;2267;48.816;9.230;2024-01-30T09:02:35;16.40;;;14.77;;
4508;SDS011;2267;48.816;9.230;2024-01-30T09:05:02;16.97;;;15.30;;
4508;SDS011;2267;48.816;9.230;2024-01-30T09:07:30;17.80;;;16.00;;
4508;SDS011;2267;48.816;9.230;2024-01-30T09:09:57;17.30;;;15.70;;
4508;SDS011;2267;48.816;9.230;2024-01-30T09:12:24;17.10;;;15.40;;
4508;SDS011;2267;48.816;9.230;2024-01-30T09:14:50;17.43;;;15.63;;
4508;SDS011;2267;48.816;9.230;2024-01-30T09:17:17;19.07;;;17.20;;
4508;SDS011;2267;48.816;9.230;2024-01-30T09:19:46;17.17;;;15.67;;
4508;SDS011;2267;48.816;9.230;2024-01-30T09:22:13;16.83;;;15.10;;
4508;SDS011;2267;48.816;9.230;2024-01-30T09:24:40;18.27;;;16.37;;
4508;SDS011;2267;48.816;9.230;2024-01-30T09:27:07;15.80;;;14.47;;
4508;SDS011;2267;48.816;9.230;2024-01-30T09:29:34;17.17;;;15.43;;
4508;SDS011;2267;48.816;9.230;2024-01-30T09:32:03;15.70;;;14.20;;
4508;SDS011;2267;48.816;9.230;2024-01-30T09:34:31;18.77;;;15.50;;
4508;SDS011;2267;48.816;9.230;2024-01-30T09:36:59;16.83;;;15.20;;
4508;SDS011;2267;48.816;9.230;2024-01-30T09:39:26;16.57;;;14.83;;
4508;SDS011;2267;48.816;9.230;2024-01-30T09:44:38;18.80;;;15.20;;
4508;SDS011;2267;48.816;9.230;2024-01-30T09:47:08;16.20;;;14.60;;
4508;SDS011;2267;48.816;9.230;2024-01-30T09:49:36;15.60;;;14.00;;
4508;SDS011;2267;48.816;9.230;2024-01-30T09:52:07;15.97;;;14.37;;
4508;SDS011;2267;48.816;9.230;2024-01-30T09:54:34;15.30;;;13.83;;
4508;SDS011;2267;48.816;9.230;2024-01-30T09:57:02;15.80;;;14.07;;
4508;SDS011;2267;48.816;9.230;2024-01-30T09:59:30;14.73;;;13.33;;
4508;SDS011;2267;48.816;9.230;2024-01-30T10:01:57;16.57;;;13.70;;
4508;SDS011;2267;48.816;9.230;2024-01-30T10:04:24;15.40;;;13.77;;
4508;SDS011;2267;48.816;9.230;2024-01-30T10:06:51;15.37;;;13.67;;
4508;SDS011;2267;48.816;9.230;2024-01-30T10:09:18;17.53;;;15.60;;
4508;SDS011;2267;48.816;9.230;2024-01-30T10:11:45;16.73;;;14.97;;
4508;SDS011;2267;48.816;9.230;2024-01-30T10:14:12;23.93;;;15.70;;
4508;SDS011;2267;48.816;9.230;2024-01-30T10:16:39;20.03;;;14.60;;
4508;SDS011;2267;48.816;9.230;2024-01-30T10:19:06;18.47;;;15.93;;
4508;SDS011;2267;48.816;9.230;2024-01-30T10:21:33;15.90;;;14.40;;
4508;SDS011;2267;48.816;9.230;2024-01-30T10:24:00;18.07;;;15.70;;
4508;SDS011;2267;48.816;9.230;2024-01-30T10:26:27;16.40;;;13.83;;
4508;SDS011;2267;48.816;9.230;2024-01-30T10:28:55;15.47;;;13.97;;
4508;SDS011;2267;48.816;9.230;2024-01-30T10:31:22;15.47;;;13.93;;
4508;SDS011;2267;48.816;9.230;2024-01-30T10:33:50;15.63;;;14.13;;
4508;SDS011;2267;48.816;9.230;2024-01-30T10:36:24;14.73;;;13.03;;
4508;SDS011;2267;48.816;9.230;2024-01-30T10:38:59;16.67;;;14.10;;
4508;SDS011;2267;48.816;9.230;2024-01-30T10:41:26;14.53;;;13.33;;
4508;SDS011;2267;48.816;9.230;2024-01-30T10:44:02;14.60;;;13.40;;
4508;SDS011;2267;48.816;9.230;2024-01-30T10:46:34;14.73;;;13.17;;
4508;SDS011;2267;48.816;9.230;2024-01-30T10:49:04;15.03;;;13.50;;
4508;SDS011;2267;48.816;9.230;2024-01-30T10:51:32;13.63;;;12.23;;
4508;SDS011;2267;48.816;9.230;2024-01-30T10:54:00;14.60;;;13.03;;
4508;SDS011;2267;48.816;9.230;2024-01-30T10:56:29;14.53;;;13.00;;
4508;SDS011;2267;48.816;9.230;2024-01-30T10:58:59;14.87;;;13.27;;
4508;SDS011;2267;48.816;9.230;2024-01-30T11:01:26;15.30;;;11.87;;
4508;SDS011;2267;48.816;9.230;2024-01-30T11:03:55;13.23;;;12.03;;
4508;SDS011;2267;48.816;9.230;2024-01-30T11:06:24;16.33;;;12.90;;
4508;SDS011;2267;48.816;9.230;2024-01-30T11:09:01;24.27;;;12.50;;
4508;SDS011;2267;48.816;9.230;2024-01-30T11:11:58;17.83;;;13.83;;
4508;SDS011;2267;48.816;9.230;2024-01-30T11:14:29;16.63;;;14.93;;
4508;SDS011;2267;48.816;9.230;2024-01-30T11:16:59;16.50;;;13.60;;
4508;SDS011;2267;48.816;9.230;2024-01-30T11:19:27;14.57;;;12.50;;
4508;SDS011;2267;48.816;9.230;2024-01-30T11:21:57;17.17;;;15.57;;
4508;SDS011;2267;48.816;9.230;2024-01-30T11:24:24;17.80;;;16.17;;
4508;SDS011;2267;48.816;9.230;2024-01-30T11:26:55;16.10;;;14.37;;
4508;SDS011;2267;48.816;9.230;2024-01-30T11:29:27;15.23;;;13.60;;
4508;SDS011;2267;48.816;9.230;2024-01-30T11:31:55;15.23;;;13.63;;
4508;SDS011;2267;48.816;9.230;2024-01-30T11:34:22;15.10;;;13.07;;
4508;SDS011;2267;48.816;9.230;2024-01-30T11:36:57;15.83;;;13.30;;
4508;SDS011;2267;48.816;9.230;2024-01-30T11:39:26;15.00;;;13.63;;
4508;SDS011;2267;48.816;9.230;2024-01-30T11:41:55;15.10;;;13.50;;
4508;SDS011;2267;48.816;9.230;2024-01-30T11:44:22;15.77;;;14.10;;
4508;SDS011;2267;48.816;9.230;2024-01-30T11:46:52;15.47;;;13.73;;
4508;SDS011;2267;48.816;9.230;2024-01-30T11:49:19;15.70;;;14.17;;
4508;SDS011;2267;48.816;9.230;2024-01-30T11:51:47;20.23;;;15.17;;
4508;SDS011;2267;48.816;9.230;2024-01-30T11:54:17;17.07;;;13.33;;
4508;SDS011;2267;48.816;9.230;2024-01-30T11:56:44;16.93;;;14.10;;
4508;SDS011;2267;48.816;9.230;2024-01-30T11:59:11;14.53;;;13.07;;
4508;SDS011;2267;48.816;9.230;2024-01-30T12:01:38;17.07;;;14.80;;
4508;SDS011;2267;48.816;9.230;2024-01-30T12:04:05;17.83;;;15.67;;
4508;SDS011;2267;48.816;9.230;2024-01-30T12:06:36;16.83;;;14.90;;
4508;SDS011;2267;48.816;9.230;2024-01-30T12:09:04;16.00;;;14.43;;
4508;SDS011;2267;48.816;9.230;2024-01-30T12:11:43;16.17;;;14.67;;
4508;SDS011;2267;48.816;9.230;2024-01-30T12:14:11;16.73;;;14.63;;
4508;SDS011;2267;48.816;9.230;2024-01-30T12:16:38;23.33;;;15.37;;
4508;SDS011;2267;48.816;9.230;2024-01-30T12:19:05;14.67;;;13.27;;
4508;SDS011;2267;48.816;9.230;2024-01-30T12:21:33;18.23;;;14.63;;
4508;SDS011;2267;48.816;9.230;2024-01-30T12:24:00;15.80;;;14.23;;
4508;SDS011;2267;48.816;9.230;2024-01-30T12:26:27;17.07;;;12.60;;
4508;SDS011;2267;48.816;9.230;2024-01-30T12:28:55;18.30;;;13.90;;
4508;SDS011;2267;48.816;9.230;2024-01-30T12:31:25;15.60;;;13.93;;
4508;SDS011;2267;48.816;9.230;2024-01-30T12:33:54;15.73;;;14.07;;
4508;SDS011;2267;48.816;9.230;2024-01-30T12:36:22;15.13;;;13.17;;
4508;SDS011;2267;48.816;9.230;2024-01-30T12:38:49;19.77;;;14.87;;
4508;SDS011;2267;48.816;9.230;2024-01-30T12:41:16;14.80;;;13.20;;
4508;SDS011;2267;48.816;9.230;2024-01-30T12:43:44;15.23;;;13.50;;
4508;SDS011;2267;48.816;9.230;2024-01-30T12:46:11;16.80;;;14.53;;
4508;SDS011;2267;48.816;9.230;2024-01-30T12:48:38;15.80;;;14.30;;
4508;SDS011;2267;48.816;9.230;2024-01-30T12:51:05;16.60;;;14.40;;
4508;SDS011;2267;48.816;9.230;2024-01-30T12:53:32;15.43;;;13.93;;
4508;SDS011;2267;48.816;9.230;2024-01-30T12:55:59;16.00;;;14.50;;
4508;SDS011;2267;48.816;9.230;2024-01-30T12:58:26;17.73;;;15.83;;
4508;SDS011;2267;48.816;9.230;2024-01-30T13:00:53;17.23;;;15.37;;
4508;SDS011;2267;48.816;9.230;2024-01-30T13:03:21;17.40;;;14.73;;
4508;SDS011;2267;48.816;9.230;2024-01-30T13:05:48;17.50;;;15.10;;
4508;SDS011;2267;48.816;9.230;2024-01-30T13:08:15;18.77;;;15.50;;
4508;SDS011;2267;48.816;9.230;2024-01-30T13:10:42;14.90;;;13.60;;
4508;SDS011;2267;48.816;9.230;2024-01-30T13:13:11;15.97;;;14.57;;
4508;SDS011;2267;48.816;9.230;2024-01-30T13:15:45;15.53;;;14.07;;
4508;SDS011;2267;48.816;9.230;2024-01-30T13:18:13;16.17;;;14.47;;
4508;SDS011;2267;48.816;9.230;2024-01-30T13:20:39;14.77;;;13.47;;
4508;SDS011;2267;48.816;9.230;2024-01-30T13:23:06;15.73;;;14.23;;
4508;SDS011;2267;48.816;9.230;2024-01-30T13:25:33;17.50;;;15.43;;
4508;SDS011;2267;48.816;9.230;2024-01-30T13:28:00;16.63;;;14.97;;
4508;SDS011;2267;48.816;9.230;2024-01-30T13:30:27;14.70;;;13.30;;
4508;SDS011;2267;48.816;9.230;2024-01-30T13:32:54;14.33;;;12.90;;
4508;SDS011;2267;48.816;9.230;2024-01-30T13:35:21;16.30;;;14.80;;
4508;SDS011;2267;48.816;9.230;2024-01-30T13:37:48;21.43;;;14.30;;
4508;SDS011;2267;48.816;9.230;2024-01-30T13:40:15;16.10;;;14.47;;
4508;SDS011;2267;48.816;9.230;2024-01-30T13:42:43;13.83;;;12.43;;
4508;SDS011;2267;48.816;9.230;2024-01-30T13:45:10;13.87;;;12.47;;
4508;SDS011;2267;48.816;9.230;2024-01-30T13:47:37;14.67;;;13.27;;
4508;SDS011;2267;48.816;9.230;2024-01-30T13:50:05;15.73;;;14.13;;
4508;SDS011;2267;48.816;9.230;2024-01-30T13:52:32;17.10;;;13.90;;
4508;SDS011;2267;48.816;9.230;2024-01-30T13:55:09;16.57;;;14.80;;
4508;SDS011;2267;48.816;9.230;2024-01-30T13:57:37;15.40;;;13.80;;
4508;SDS011;2267;48.816;9.230;2024-01-30T14:00:05;15.77;;;14.07;;
4508;SDS011;2267;48.816;9.230;2024-01-30T14:02:35;15.67;;;14.03;;
4508;SDS011;2267;48.816;9.230;2024-01-30T14:05:02;14.13;;;12.63;;
4508;SDS011;2267;48.816;9.230;2024-01-30T14:07:31;15.27;;;13.10;;
4508;SDS011;2267;48.816;9.230;2024-01-30T14:09:58;14.53;;;13.23;;
4508;SDS011;2267;48.816;9.230;2024-01-30T14:12:25;14.00;;;12.70;;
4508;SDS011;2267;48.816;9.230;2024-01-30T14:14:52;15.13;;;13.20;;
4508;SDS011;2267;48.816;9.230;2024-01-30T14:17:19;14.73;;;13.13;;
4508;SDS011;2267;48.816;9.230;2024-01-30T14:19:46;17.40;;;13.00;;
4508;SDS011;2267;48.816;9.230;2024-01-30T14:22:12;15.83;;;14.10;;
4508;SDS011;2267;48.816;9.230;2024-01-30T14:24:39;15.20;;;13.90;;
4508;SDS011;2267;48.816;9.230;2024-01-30T14:27:06;16.83;;;15.07;;
4508;SDS011;2267;48.816;9.230;2024-01-30T14:29:34;15.57;;;14.10;;
4508;SDS011;2267;48.816;9.230;2024-01-30T14:32:01;15.57;;;14.17;;
4508;SDS011;2267;48.816;9.230;2024-01-30T14:34:30;18.23;;;15.27;;
4508;SDS011;2267;48.816;9.230;2024-01-30T14:36:57;16.33;;;14.60;;
4508;SDS011;2267;48.816;9.230;2024-01-30T14:39:24;15.90;;;14.40;;
4508;SDS011;2267;48.816;9.230;2024-01-30T14:41:51;15.20;;;13.80;;
4508;SDS011;2267;48.816;9.230;2024-01-30T14:44:18;23.23;;;16.20;;
4508;SDS011;2267;48.816;9.230;2024-01-30T14:46:45;15.80;;;14.10;;
4508;SDS011;2267;48.816;9.230;2024-01-30T14:49:12;16.87;;;15.13;;
4508;SDS011;2267;48.816;9.230;2024-01-30T14:51:39;15.80;;;13.77;;